Cincinnati, Ohio
Traffic Map
Current Weather Conditions
Cincinnati, Ohio
Clear
Clear
27°
Feels Like: 28°
Wind Chill: 27° Ceiling: Unl
Heat Index: 28° Visibility: 10mi
Dew Point: 19° Wind: 5mph
Humidity: 64% Direction: 170° (S)
Pressure: 29.95in Gusts: 0mph
Raw Report DataKLUK 312353Z 17004KT 10SM CLR 27/19 A2995 RMK AO2 SLP137 T02670194 10306 20261 55002
Traffic Incident Summary
Active as of:
Severity:
Category:
InformationThere was an issue retrieving the traffic information for this location. Please try a different location or try again shortly.
Advertisements
Track Severe Weather on mobile